sensor_id;sensor_type;location;lat;lon;timestamp;pressure;altitude;pressure_sealevel;temperature;humidity
64336;BME280;50672;53.362;-6.240;2023-04-01T00:01:27;100270.06;;;10.60;86.23
64336;BME280;50672;53.362;-6.240;2023-04-01T00:03:54;100272.97;;;10.58;86.50
64336;BME280;50672;53.362;-6.240;2023-04-01T00:06:23;100271.28;;;10.57;86.11
64336;BME280;50672;53.362;-6.240;2023-04-01T00:08:50;100279.44;;;10.57;86.38
64336;BME280;50672;53.362;-6.240;2023-04-01T00:11:17;100279.63;;;10.56;86.25
64336;BME280;50672;53.362;-6.240;2023-04-01T00:13:49;100289.69;;;10.55;86.19
64336;BME280;50672;53.362;-6.240;2023-04-01T00:16:16;100278.81;;;10.55;86.08
64336;BME280;50672;53.362;-6.240;2023-04-01T00:18:48;100281.53;;;10.55;86.11
64336;BME280;50672;53.362;-6.240;2023-04-01T00:21:16;100276.28;;;10.54;86.36
64336;BME280;50672;53.362;-6.240;2023-04-01T00:23:43;100282.75;;;10.53;86.29
64336;BME280;50672;53.362;-6.240;2023-04-01T00:26:10;100285.84;;;10.50;86.07
64336;BME280;50672;53.362;-6.240;2023-04-01T00:28:39;100286.03;;;10.48;86.03
64336;BME280;50672;53.362;-6.240;2023-04-01T00:31:07;100284.72;;;10.44;86.26
64336;BME280;50672;53.362;-6.240;2023-04-01T00:33:35;100283.84;;;10.43;85.93
64336;BME280;50672;53.362;-6.240;2023-04-01T00:36:31;100285.25;;;10.39;86.36
64336;BME280;50672;53.362;-6.240;2023-04-01T00:38:58;100287.31;;;10.37;85.94
64336;BME280;50672;53.362;-6.240;2023-04-01T00:41:34;100283.09;;;10.35;86.37
64336;BME280;50672;53.362;-6.240;2023-04-01T00:44:16;100291.41;;;10.33;86.34
64336;BME280;50672;53.362;-6.240;2023-04-01T00:46:51;100283.44;;;10.32;86.42
64336;BME280;50672;53.362;-6.240;2023-04-01T00:49:28;100284.66;;;10.29;86.19
64336;BME280;50672;53.362;-6.240;2023-04-01T00:51:58;100285.84;;;10.26;86.52
64336;BME280;50672;53.362;-6.240;2023-04-01T00:54:28;100277.25;;;10.23;86.36
64336;BME280;50672;53.362;-6.240;2023-04-01T00:57:09;100282.00;;;10.21;86.21
64336;BME280;50672;53.362;-6.240;2023-04-01T00:59:43;100287.00;;;10.17;86.52
64336;BME280;50672;53.362;-6.240;2023-04-01T01:02:12;100286.13;;;10.17;86.57
64336;BME280;50672;53.362;-6.240;2023-04-01T01:04:39;100289.03;;;10.15;86.51
64336;BME280;50672;53.362;-6.240;2023-04-01T01:12:25;100287.34;;;10.14;86.65
64336;BME280;50672;53.362;-6.240;2023-04-01T01:23:12;100297.19;;;10.15;86.84
64336;BME280;50672;53.362;-6.240;2023-04-01T01:26:17;100305.34;;;10.15;86.92
64336;BME280;50672;53.362;-6.240;2023-04-01T01:31:53;100304.31;;;10.16;86.99
64336;BME280;50672;53.362;-6.240;2023-04-01T01:37:01;100316.22;;;10.15;87.00
64336;BME280;50672;53.362;-6.240;2023-04-01T01:39:31;100309.78;;;10.16;86.98
64336;BME280;50672;53.362;-6.240;2023-04-01T01:42:06;100320.47;;;10.18;86.54
64336;BME280;50672;53.362;-6.240;2023-04-01T01:44:35;100313.13;;;10.18;86.76
64336;BME280;50672;53.362;-6.240;2023-04-01T01:47:05;100313.31;;;10.17;86.89
64336;BME280;50672;53.362;-6.240;2023-04-01T01:49:33;100317.94;;;10.16;86.73
64336;BME280;50672;53.362;-6.240;2023-04-01T01:52:00;100316.03;;;10.17;86.61
64336;BME280;50672;53.362;-6.240;2023-04-01T01:54:33;100316.22;;;10.15;86.81
64336;BME280;50672;53.362;-6.240;2023-04-01T01:57:09;100314.53;;;10.14;86.65
64336;BME280;50672;53.362;-6.240;2023-04-01T01:59:46;100318.31;;;10.13;86.99
64336;BME280;50672;53.362;-6.240;2023-04-01T02:02:15;100321.03;;;10.13;87.04
64336;BME280;50672;53.362;-6.240;2023-04-01T02:04:45;100320.34;;;10.11;86.86
64336;BME280;50672;53.362;-6.240;2023-04-01T02:07:25;100323.44;;;10.08;86.77
64336;BME280;50672;53.362;-6.240;2023-04-01T02:09:54;100324.44;;;10.07;86.80
64336;BME280;50672;53.362;-6.240;2023-04-01T02:12:21;100323.63;;;10.06;86.75
64336;BME280;50672;53.362;-6.240;2023-04-01T02:14:55;100326.53;;;10.05;86.78
64336;BME280;50672;53.362;-6.240;2023-04-01T02:17:27;100335.69;;;10.04;86.77
64336;BME280;50672;53.362;-6.240;2023-04-01T02:20:13;100330.44;;;10.02;87.08
64336;BME280;50672;53.362;-6.240;2023-04-01T02:22:46;100338.78;;;10.01;87.01
64336;BME280;50672;53.362;-6.240;2023-04-01T02:25:17;100345.06;;;10.01;87.13
64336;BME280;50672;53.362;-6.240;2023-04-01T02:27:51;100343.38;;;10.00;87.27
64336;BME280;50672;53.362;-6.240;2023-04-01T02:30:20;100344.41;;;9.99;87.08
64336;BME280;50672;53.362;-6.240;2023-04-01T02:32:48;100352.38;;;10.01;87.04
64336;BME280;50672;53.362;-6.240;2023-04-01T02:35:16;100348.81;;;10.00;87.36
64336;BME280;50672;53.362;-6.240;2023-04-01T02:37:45;100348.81;;;10.00;87.28
64336;BME280;50672;53.362;-6.240;2023-04-01T02:40:16;100351.34;;;10.02;87.15
64336;BME280;50672;53.362;-6.240;2023-04-01T02:42:43;100352.38;;;10.01;87.37
64336;BME280;50672;53.362;-6.240;2023-04-01T02:45:11;100358.66;;;10.01;87.00
64336;BME280;50672;53.362;-6.240;2023-04-01T02:47:39;100353.41;;;10.00;87.35
64336;BME280;50672;53.362;-6.240;2023-04-01T02:50:07;100362.41;;;10.00;87.34
64336;BME280;50672;53.362;-6.240;2023-04-01T02:52:34;100360.72;;;9.99;87.04
64336;BME280;50672;53.362;-6.240;2023-04-01T02:55:07;100354.44;;;9.99;87.22
64336;BME280;50672;53.362;-6.240;2023-04-01T02:57:34;100357.81;;;10.01;87.42
64336;BME280;50672;53.362;-6.240;2023-04-01T03:00:01;100362.59;;;9.99;87.39
64336;BME280;50672;53.362;-6.240;2023-04-01T03:02:34;100366.34;;;9.98;87.21
64336;BME280;50672;53.362;-6.240;2023-04-01T03:05:02;100369.06;;;9.98;87.40
64336;BME280;50672;53.362;-6.240;2023-04-01T03:07:29;100373.66;;;9.97;87.35
64336;BME280;50672;53.362;-6.240;2023-04-01T03:09:55;100375.34;;;9.98;87.52
64336;BME280;50672;53.362;-6.240;2023-04-01T03:12:22;100374.50;;;9.98;87.48
64336;BME280;50672;53.362;-6.240;2023-04-01T03:14:49;100377.22;;;9.98;87.42
64336;BME280;50672;53.362;-6.240;2023-04-01T03:17:16;100378.91;;;9.99;87.54
64336;BME280;50672;53.362;-6.240;2023-04-01T03:19:43;100380.59;;;10.00;87.21
64336;BME280;50672;53.362;-6.240;2023-04-01T03:22:12;100387.75;;;10.01;87.63
64336;BME280;50672;53.362;-6.240;2023-04-01T03:24:59;100379.59;;;10.01;87.38
64336;BME280;50672;53.362;-6.240;2023-04-01T03:28:25;100382.31;;;10.01;87.43
64336;BME280;50672;53.362;-6.240;2023-04-01T03:31:53;100385.03;;;10.01;87.55
64336;BME280;50672;53.362;-6.240;2023-04-01T03:34:59;100395.91;;;10.01;87.65
64336;BME280;50672;53.362;-6.240;2023-04-01T03:37:26;100395.03;;;10.00;87.56
64336;BME280;50672;53.362;-6.240;2023-04-01T03:39:53;100392.50;;;9.99;87.58
64336;BME280;50672;53.362;-6.240;2023-04-01T03:42:20;100402.53;;;9.98;87.41
64336;BME280;50672;53.362;-6.240;2023-04-01T03:44:47;100403.56;;;9.97;87.81
64336;BME280;50672;53.362;-6.240;2023-04-01T03:47:14;100412.72;;;9.96;87.63
64336;BME280;50672;53.362;-6.240;2023-04-01T03:49:41;100407.66;;;9.93;87.91
64336;BME280;50672;53.362;-6.240;2023-04-01T03:52:14;100412.91;;;9.95;87.65
64336;BME280;50672;53.362;-6.240;2023-04-01T03:54:41;100405.81;;;9.94;87.74
64336;BME280;50672;53.362;-6.240;2023-04-01T03:57:08;100413.28;;;9.91;87.78
64336;BME280;50672;53.362;-6.240;2023-04-01T03:59:35;100415.34;;;9.89;87.50
64336;BME280;50672;53.362;-6.240;2023-04-01T04:02:01;100422.81;;;9.87;87.69
64336;BME280;50672;53.362;-6.240;2023-04-01T04:04:37;100419.09;;;9.88;87.47
64336;BME280;50672;53.362;-6.240;2023-04-01T04:07:04;100419.91;;;9.89;87.60
64336;BME280;50672;53.362;-6.240;2023-04-01T04:09:31;100422.81;;;9.87;87.75
64336;BME280;50672;53.362;-6.240;2023-04-01T04:11:58;100428.25;;;9.87;87.68
64336;BME280;50672;53.362;-6.240;2023-04-01T04:14:25;100430.97;;;9.87;87.65
64336;BME280;50672;53.362;-6.240;2023-04-01T04:16:52;100430.13;;;9.87;87.59
64336;BME280;50672;53.362;-6.240;2023-04-01T04:19:19;100437.44;;;9.86;87.80
64336;BME280;50672;53.362;-6.240;2023-04-01T04:21:46;100434.88;;;9.85;87.61
64336;BME280;50672;53.362;-6.240;2023-04-01T04:24:12;100440.50;;;9.83;87.72
64336;BME280;50672;53.362;-6.240;2023-04-01T04:26:39;100434.41;;;9.81;87.58
64336;BME280;50672;53.362;-6.240;2023-04-01T04:29:06;100441.53;;;9.82;87.67
64336;BME280;50672;53.362;-6.240;2023-04-01T04:31:33;100445.28;;;9.81;87.73
64336;BME280;50672;53.362;-6.240;2023-04-01T04:34:00;100446.50;;;9.79;88.09
64336;BME280;50672;53.362;-6.240;2023-04-01T04:36:27;100454.47;;;9.80;87.73
64336;BME280;50672;53.362;-6.240;2023-04-01T04:38:54;100450.22;;;9.78;87.88
64336;BME280;50672;53.362;-6.240;2023-04-01T04:41:21;100455.84;;;9.76;87.70
64336;BME280;50672;53.362;-6.240;2023-04-01T04:43:54;100458.56;;;9.76;88.18
64336;BME280;50672;53.362;-6.240;2023-04-01T04:46:21;100465.69;;;9.77;87.86
64336;BME280;50672;53.362;-6.240;2023-04-01T04:48:56;100462.28;;;9.75;88.07
64336;BME280;50672;53.362;-6.240;2023-04-01T04:51:23;100472.50;;;9.73;87.84
64336;BME280;50672;53.362;-6.240;2023-04-01T04:53:50;100472.50;;;9.73;87.88
64336;BME280;50672;53.362;-6.240;2023-04-01T04:56:22;100477.75;;;9.74;88.21
64336;BME280;50672;53.362;-6.240;2023-04-01T04:58:49;100482.38;;;9.74;88.29
64336;BME280;50672;53.362;-6.240;2023-04-01T05:01:16;100481.50;;;9.73;88.05
64336;BME280;50672;53.362;-6.240;2023-04-01T05:03:46;100485.22;;;9.72;88.06
64336;BME280;50672;53.362;-6.240;2023-04-01T05:06:14;100495.97;;;9.74;88.18
64336;BME280;50672;53.362;-6.240;2023-04-01T05:08:42;100493.91;;;9.76;88.31
64336;BME280;50672;53.362;-6.240;2023-04-01T05:11:18;100498.31;;;9.77;88.26
64336;BME280;50672;53.362;-6.240;2023-04-01T05:13:45;100503.75;;;9.77;88.09
64336;BME280;50672;53.362;-6.240;2023-04-01T05:16:14;100501.88;;;9.78;88.36
64336;BME280;50672;53.362;-6.240;2023-04-01T05:18:48;100503.94;;;9.75;88.02
64336;BME280;50672;53.362;-6.240;2023-04-01T05:21:15;100506.66;;;9.75;88.68
64336;BME280;50672;53.362;-6.240;2023-04-01T05:23:43;100511.91;;;9.77;88.23
64336;BME280;50672;53.362;-6.240;2023-04-01T05:26:12;100521.72;;;9.78;88.22
64336;BME280;50672;53.362;-6.240;2023-04-01T05:28:40;100512.91;;;9.76;88.61
64336;BME280;50672;53.362;-6.240;2023-04-01T05:31:07;100521.06;;;9.76;88.32
64336;BME280;50672;53.362;-6.240;2023-04-01T05:33:34;100529.06;;;9.78;88.70
64336;BME280;50672;53.362;-6.240;2023-04-01T05:36:09;100537.22;;;9.78;88.66
64336;BME280;50672;53.362;-6.240;2023-04-01T05:38:37;100539.56;;;9.81;88.48
64336;BME280;50672;53.362;-6.240;2023-04-01T05:41:04;100542.09;;;9.82;88.45
64336;BME280;50672;53.362;-6.240;2023-04-01T05:43:32;100543.81;;;9.83;88.55
64336;BME280;50672;53.362;-6.240;2023-04-01T05:46:02;100547.41;;;9.84;88.74
64336;BME280;50672;53.362;-6.240;2023-04-01T05:48:28;100554.31;;;9.86;88.78
64336;BME280;50672;53.362;-6.240;2023-04-01T05:50:55;100558.75;;;9.87;88.53
64336;BME280;50672;53.362;-6.240;2023-04-01T05:53:22;100558.56;;;9.89;88.79
64336;BME280;50672;53.362;-6.240;2023-04-01T05:55:49;100565.88;;;9.88;88.65
64336;BME280;50672;53.362;-6.240;2023-04-01T05:58:16;100569.44;;;9.89;88.75
64336;BME280;50672;53.362;-6.240;2023-04-01T06:00:47;100573.03;;;9.89;88.79
64336;BME280;50672;53.362;-6.240;2023-04-01T06:03:24;100586.44;;;9.91;88.89
64336;BME280;50672;53.362;-6.240;2023-04-01T06:05:51;100572.84;;;9.91;88.93
64336;BME280;50672;53.362;-6.240;2023-04-01T06:08:18;100585.56;;;9.90;88.52
64336;BME280;50672;53.362;-6.240;2023-04-01T06:11:14;100590.19;;;9.90;88.79
64336;BME280;50672;53.362;-6.240;2023-04-01T06:20:04;100600.22;;;9.89;88.80
64336;BME280;50672;53.362;-6.240;2023-04-01T06:39:19;100643.34;;;9.92;88.65
64336;BME280;50672;53.362;-6.240;2023-04-01T06:47:29;100663.56;;;9.98;88.10
64336;BME280;50672;53.362;-6.240;2023-04-01T06:53:12;100666.09;;;10.00;88.22
64336;BME280;50672;53.362;-6.240;2023-04-01T06:55:53;100676.31;;;9.98;88.07
64336;BME280;50672;53.362;-6.240;2023-04-01T06:58:25;100674.44;;;9.98;87.91
64336;BME280;50672;53.362;-6.240;2023-04-01T07:01:02;100684.31;;;9.99;88.04
64336;BME280;50672;53.362;-6.240;2023-04-01T07:03:36;100683.25;;;10.00;87.94
64336;BME280;50672;53.362;-6.240;2023-04-01T07:06:10;100696.53;;;10.03;88.06
64336;BME280;50672;53.362;-6.240;2023-04-01T07:08:41;100703.66;;;10.04;87.70
64336;BME280;50672;53.362;-6.240;2023-04-01T07:11:25;100704.16;;;10.08;88.07
64336;BME280;50672;53.362;-6.240;2023-04-01T07:14:25;100718.09;;;10.13;87.89
64336;BME280;50672;53.362;-6.240;2023-04-01T07:17:12;100722.16;;;10.17;87.64
64336;BME280;50672;53.362;-6.240;2023-04-01T07:19:52;100731.16;;;10.18;87.52
64336;BME280;50672;53.362;-6.240;2023-04-01T07:22:25;100733.91;;;10.18;87.68
64336;BME280;50672;53.362;-6.240;2023-04-01T07:24:54;100738.97;;;10.21;87.47
64336;BME280;50672;53.362;-6.240;2023-04-01T07:27:21;100742.88;;;10.26;87.19
64336;BME280;50672;53.362;-6.240;2023-04-01T07:29:47;100745.59;;;10.26;87.23
64336;BME280;50672;53.362;-6.240;2023-04-01T07:38:15;100767.19;;;10.20;87.25
64336;BME280;50672;53.362;-6.240;2023-04-01T07:41:07;100769.91;;;10.20;86.92
64336;BME280;50672;53.362;-6.240;2023-04-01T07:52:44;100806.81;;;10.22;86.75
64336;BME280;50672;53.362;-6.240;2023-04-01T07:58:17;100810.56;;;10.21;86.74
64336;BME280;50672;53.362;-6.240;2023-04-01T08:01:33;100816.00;;;10.21;86.64
64336;BME280;50672;53.362;-6.240;2023-04-01T08:06:35;100827.72;;;10.22;86.46
64336;BME280;50672;53.362;-6.240;2023-04-01T08:12:02;100840.81;;;10.26;86.38
64336;BME280;50672;53.362;-6.240;2023-04-01T08:14:48;100851.53;;;10.28;86.15
64336;BME280;50672;53.362;-6.240;2023-04-01T08:17:23;100857.47;;;10.32;86.15
64336;BME280;50672;53.362;-6.240;2023-04-01T08:20:05;100860.56;;;10.37;85.81
64336;BME280;50672;53.362;-6.240;2023-04-01T08:22:42;100869.75;;;10.44;85.80
64336;BME280;50672;53.362;-6.240;2023-04-01T08:25:16;100874.66;;;10.49;85.60
64336;BME280;50672;53.362;-6.240;2023-04-01T08:27:47;100884.38;;;10.51;85.62
64336;BME280;50672;53.362;-6.240;2023-04-01T08:32:56;100896.25;;;10.58;85.36
64336;BME280;50672;53.362;-6.240;2023-04-01T08:35:30;100903.25;;;10.61;85.35
64336;BME280;50672;53.362;-6.240;2023-04-01T08:38:06;100902.53;;;10.67;85.44
64336;BME280;50672;53.362;-6.240;2023-04-01T08:40:57;100904.75;;;10.72;85.08
64336;BME280;50672;53.362;-6.240;2023-04-01T08:43:44;100912.75;;;10.82;84.98
64336;BME280;50672;53.362;-6.240;2023-04-01T08:49:10;100926.00;;;10.93;85.03
64336;BME280;50672;53.362;-6.240;2023-04-01T08:54:45;100935.69;;;11.04;84.41
64336;BME280;50672;53.362;-6.240;2023-04-01T08:57:39;100935.69;;;11.04;84.52
64336;BME280;50672;53.362;-6.240;2023-04-01T09:00:31;100948.59;;;11.02;84.21
64336;BME280;50672;53.362;-6.240;2023-04-01T09:03:31;100946.56;;;11.04;84.17
64336;BME280;50672;53.362;-6.240;2023-04-01T09:06:37;100956.41;;;11.13;83.95
64336;BME280;50672;53.362;-6.240;2023-04-01T09:37:46;101000.28;;;11.83;83.15
64336;BME280;50672;53.362;-6.240;2023-04-01T09:40:21;101010.31;;;11.90;83.21
64336;BME280;50672;53.362;-6.240;2023-04-01T09:45:44;101013.97;;;12.14;82.63
64336;BME280;50672;53.362;-6.240;2023-04-01T09:48:46;101025.63;;;12.31;82.28
64336;BME280;50672;53.362;-6.240;2023-04-01T09:54:27;101026.97;;;12.58;81.89
64336;BME280;50672;53.362;-6.240;2023-04-01T10:08:46;101040.38;;;12.91;80.14
64336;BME280;50672;53.362;-6.240;2023-04-01T10:33:51;101091.28;;;13.30;79.43
64336;BME280;50672;53.362;-6.240;2023-04-01T10:47:53;101119.00;;;13.27;78.75
64336;BME280;50672;53.362;-6.240;2023-04-01T10:55:35;101128.84;;;12.90;78.35
64336;BME280;50672;53.362;-6.240;2023-04-01T11:01:33;101139.69;;;12.75;78.47
64336;BME280;50672;53.362;-6.240;2023-04-01T11:07:21;101153.38;;;12.98;77.95
64336;BME280;50672;53.362;-6.240;2023-04-01T11:18:41;101170.03;;;13.88;77.11
64336;BME280;50672;53.362;-6.240;2023-04-01T11:24:03;101168.94;;;14.12;76.54
64336;BME280;50672;53.362;-6.240;2023-04-01T11:30:01;101178.19;;;14.26;75.00
64336;BME280;50672;53.362;-6.240;2023-04-01T11:32:43;101186.22;;;14.28;74.77
64336;BME280;50672;53.362;-6.240;2023-04-01T11:35:40;101192.81;;;14.63;74.53
64336;BME280;50672;53.362;-6.240;2023-04-01T11:39:08;101194.75;;;14.84;73.70
64336;BME280;50672;53.362;-6.240;2023-04-01T11:41:19;101203.03;;;14.69;73.29
64336;BME280;50672;53.362;-6.240;2023-04-01T11:44:12;101206.88;;;14.60;72.86
64336;BME280;50672;53.362;-6.240;2023-04-01T11:49:33;101222.19;;;14.40;72.08
64336;BME280;50672;53.362;-6.240;2023-04-01T11:52:25;101220.28;;;14.85;71.79
64336;BME280;50672;53.362;-6.240;2023-04-01T12:00:18;101228.78;;;15.27;70.80
64336;BME280;50672;53.362;-6.240;2023-04-01T12:05:43;101237.81;;;15.70;69.98
64336;BME280;50672;53.362;-6.240;2023-04-01T12:11:00;101237.41;;;16.58;69.32
64336;BME280;50672;53.362;-6.240;2023-04-01T12:16:51;101246.44;;;17.69;67.63
64336;BME280;50672;53.362;-6.240;2023-04-01T12:19:40;101251.31;;;17.67;66.65
64336;BME280;50672;53.362;-6.240;2023-04-01T12:27:42;101266.03;;;17.13;64.89
64336;BME280;50672;53.362;-6.240;2023-04-01T12:36:17;101271.75;;;16.76;63.99
64336;BME280;50672;53.362;-6.240;2023-04-01T12:39:28;101280.09;;;16.54;63.69
64336;BME280;50672;53.362;-6.240;2023-04-01T12:50:41;101303.31;;;17.22;62.66
64336;BME280;50672;53.362;-6.240;2023-04-01T12:56:27;101303.25;;;17.97;61.73
64336;BME280;50672;53.362;-6.240;2023-04-01T13:16:35;101329.31;;;18.08;58.37
64336;BME280;50672;53.362;-6.240;2023-04-01T13:19:38;101333.47;;;17.70;58.18
64336;BME280;50672;53.362;-6.240;2023-04-01T13:25:57;101347.31;;;17.90;58.13
64336;BME280;50672;53.362;-6.240;2023-04-01T13:28:50;101344.78;;;18.02;58.13
64336;BME280;50672;53.362;-6.240;2023-04-01T13:40:34;101360.09;;;16.95;57.46
64336;BME280;50672;53.362;-6.240;2023-04-01T13:52:29;101388.00;;;17.40;57.58
64336;BME280;50672;53.362;-6.240;2023-04-01T13:54:33;101381.09;;;17.09;57.46
64336;BME280;50672;53.362;-6.240;2023-04-01T14:10:46;101411.66;;;16.14;57.92
64336;BME280;50672;53.362;-6.240;2023-04-01T14:13:52;101418.25;;;15.98;58.16
64336;BME280;50672;53.362;-6.240;2023-04-01T14:25:28;101437.84;;;15.14;59.28
64336;BME280;50672;53.362;-6.240;2023-04-01T14:28:38;101442.22;;;14.93;59.42
64336;BME280;50672;53.362;-6.240;2023-04-01T14:31:41;101450.97;;;14.74;59.84
64336;BME280;50672;53.362;-6.240;2023-04-01T14:37:14;101466.69;;;14.33;59.99
64336;BME280;50672;53.362;-6.240;2023-04-01T14:43:10;101469.63;;;14.00;60.54
64336;BME280;50672;53.362;-6.240;2023-04-01T14:46:27;101482.56;;;13.83;61.03
64336;BME280;50672;53.362;-6.240;2023-04-01T14:48:59;101477.97;;;13.76;61.09
64336;BME280;50672;53.362;-6.240;2023-04-01T14:51:29;101484.97;;;13.78;61.58
64336;BME280;50672;53.362;-6.240;2023-04-01T14:57:10;101494.09;;;13.71;62.05
64336;BME280;50672;53.362;-6.240;2023-04-01T15:02:45;101507.13;;;13.60;62.42
64336;BME280;50672;53.362;-6.240;2023-04-01T15:05:39;101504.75;;;13.57;62.87
64336;BME280;50672;53.362;-6.240;2023-04-01T15:11:56;101525.44;;;13.60;63.64
64336;BME280;50672;53.362;-6.240;2023-04-01T15:37:01;101577.25;;;13.45;66.88
64336;BME280;50672;53.362;-6.240;2023-04-01T15:40:45;101574.03;;;13.41;67.02
64336;BME280;50672;53.362;-6.240;2023-04-01T16:07:28;101627.00;;;12.91;69.74
64336;BME280;50672;53.362;-6.240;2023-04-01T16:13:45;101631.06;;;12.70;70.46
64336;BME280;50672;53.362;-6.240;2023-04-01T16:17:15;101654.63;;;12.63;70.47
64336;BME280;50672;53.362;-6.240;2023-04-01T16:19:59;101656.59;;;12.44;70.92
64336;BME280;50672;53.362;-6.240;2023-04-01T16:30:37;101678.13;;;12.13;72.13
64336;BME280;50672;53.362;-6.240;2023-04-01T16:34:24;101693.97;;;12.09;72.52
64336;BME280;50672;53.362;-6.240;2023-04-01T16:43:40;101710.31;;;11.83;73.59
64336;BME280;50672;53.362;-6.240;2023-04-01T16:47:14;101714.72;;;11.76;74.18
64336;BME280;50672;53.362;-6.240;2023-04-01T18:25:43;101931.69;;;10.77;78.12
64336;BME280;50672;53.362;-6.240;2023-04-01T18:30:42;101943.47;;;10.68;78.43
64336;BME280;50672;53.362;-6.240;2023-04-01T18:36:09;101968.28;;;10.65;78.64
64336;BME280;50672;53.362;-6.240;2023-04-01T18:38:49;101967.84;;;10.59;78.66
64336;BME280;50672;53.362;-6.240;2023-04-01T18:41:34;101978.75;;;10.59;78.50
64336;BME280;50672;53.362;-6.240;2023-04-01T18:44:47;101978.75;;;10.59;78.73
64336;BME280;50672;53.362;-6.240;2023-04-01T18:54:27;101988.50;;;10.52;78.79
64336;BME280;50672;53.362;-6.240;2023-04-01T18:58:31;101993.66;;;10.55;78.59
64336;BME280;50672;53.362;-6.240;2023-04-01T19:01:59;102010.00;;;10.55;78.72
64336;BME280;50672;53.362;-6.240;2023-04-01T19:05:04;102021.19;;;10.52;78.94
64336;BME280;50672;53.362;-6.240;2023-04-01T19:08:58;102026.75;;;10.51;78.53
64336;BME280;50672;53.362;-6.240;2023-04-01T19:12:21;102031.63;;;10.47;78.91
64336;BME280;50672;53.362;-6.240;2023-04-01T19:15:53;102033.34;;;10.48;78.89
64336;BME280;50672;53.362;-6.240;2023-04-01T19:24:12;102052.25;;;10.40;78.58
64336;BME280;50672;53.362;-6.240;2023-04-01T19:37:38;102070.56;;;10.38;77.97
64336;BME280;50672;53.362;-6.240;2023-04-01T19:58:01;102102.63;;;10.24;77.09
64336;BME280;50672;53.362;-6.240;2023-04-01T20:00:40;102097.47;;;10.21;76.55
64336;BME280;50672;53.362;-6.240;2023-04-01T20:06:11;102115.06;;;10.17;76.47
64336;BME280;50672;53.362;-6.240;2023-04-01T20:12:15;102127.09;;;10.15;76.41
64336;BME280;50672;53.362;-6.240;2023-04-01T20:15:46;102131.66;;;10.14;76.19
64336;BME280;50672;53.362;-6.240;2023-04-01T20:19:11;102134.66;;;10.11;75.75
64336;BME280;50672;53.362;-6.240;2023-04-01T20:25:32;102143.38;;;10.05;75.77
64336;BME280;50672;53.362;-6.240;2023-04-01T20:28:45;102144.66;;;10.01;75.74
64336;BME280;50672;53.362;-6.240;2023-04-01T20:32:06;102150.09;;;10.01;75.40
64336;BME280;50672;53.362;-6.240;2023-04-01T20:41:20;102168.41;;;9.99;74.80
64336;BME280;50672;53.362;-6.240;2023-04-01T20:53:12;102191.28;;;9.96;74.75
64336;BME280;50672;53.362;-6.240;2023-04-01T21:17:27;102228.94;;;9.91;73.71
64336;BME280;50672;53.362;-6.240;2023-04-01T21:24:35;102238.09;;;9.90;73.15
64336;BME280;50672;53.362;-6.240;2023-04-01T21:30:35;102247.22;;;9.89;73.38
64336;BME280;50672;53.362;-6.240;2023-04-01T22:04:53;102302.44;;;9.80;72.38
64336;BME280;50672;53.362;-6.240;2023-04-01T22:20:56;102330.28;;;9.72;72.64
64336;BME280;50672;53.362;-6.240;2023-04-01T22:24:34;102342.91;;;9.73;72.55
64336;BME280;50672;53.362;-6.240;2023-04-01T22:31:13;102337.59;;;9.71;72.57
64336;BME280;50672;53.362;-6.240;2023-04-01T22:35:08;102342.16;;;9.71;72.87
64336;BME280;50672;53.362;-6.240;2023-04-01T22:51:28;102366.03;;;9.67;73.16
64336;BME280;50672;53.362;-6.240;2023-04-01T22:55:13;102371.34;;;9.69;73.35
64336;BME280;50672;53.362;-6.240;2023-04-01T22:59:24;102358.72;;;9.68;73.37
64336;BME280;50672;53.362;-6.240;2023-04-01T23:03:06;102369.88;;;9.65;73.63
64336;BME280;50672;53.362;-6.240;2023-04-01T23:06:33;102375.44;;;9.63;73.65
64336;BME280;50672;53.362;-6.240;2023-04-01T23:09:57;102381.88;;;9.62;73.73
64336;BME280;50672;53.362;-6.240;2023-04-01T23:13:25;102387.44;;;9.61;73.65
64336;BME280;50672;53.362;-6.240;2023-04-01T23:17:52;102402.00;;;9.60;73.61
64336;BME280;50672;53.362;-6.240;2023-04-01T23:23:24;102390.53;;;9.56;74.02
64336;BME280;50672;53.362;-6.240;2023-04-01T23:27:00;102393.50;;;9.53;74.11
64336;BME280;50672;53.362;-6.240;2023-04-01T23:30:58;102388.44;;;9.48;74.34
64336;BME280;50672;53.362;-6.240;2023-04-01T23:36:53;102402.06;;;9.37;74.45
64336;BME280;50672;53.362;-6.240;2023-04-01T23:40:18;102413.22;;;9.34;74.58
64336;BME280;50672;53.362;-6.240;2023-04-01T23:43:45;102417.16;;;9.30;74.52
